Time;durP1;ratioP1;P1;durP2;ratioP2;P2;SDS_P1;SDS_P2;PMS_P1;PMS_P2;Temp;Humidity;BMP_temperature;BMP_pressure;BME280_temperature;BME280_humidity;BME280_pressure;Samples;Min_cycle;Max_cycle;Signal;HPM_P1;HPM_P2
2023/09/09 00:01:02;;;;;;;;;;;;;;;26.02;41.95;101301.06;5096388;28;20397;-65
2023/09/09 00:03:27;;;;;;;;;;;;;;;26.06;41.83;101297.47;5076896;28;19920;-65
2023/09/09 00:05:53;;;;;;;;;;;;;;;26.05;41.55;101304.06;5076587;28;20002;-65
2023/09/09 00:08:19;;;;;;;;;;;;;;;26.01;41.73;101299.41;5087717;28;20307;-65
2023/09/09 00:10:44;;;;;;;;;;;;;;;26.04;41.92;101299.69;5096009;28;19912;-65
2023/09/09 00:13:09;;;;;;;;;;;;;;;26.12;41.82;101303.00;5095312;28;19918;-65
2023/09/09 00:15:35;;;;;;;;;;;;;;;26.14;41.72;101293.34;5095261;28;19912;-65
2023/09/09 00:18:02;;;;;;;;;;;;;;;26.12;41.69;101290.03;5095261;28;20535;-65
2023/09/09 00:20:35;;;;;;;;;;;;;;;26.10;41.90;101297.75;5095166;28;19916;-65
2023/09/09 00:23:07;;;;;;;;;;;;;;;25.93;41.71;101298.06;5094655;28;19961;-64
2023/09/09 00:25:32;;;;;;;;;;;;;;;25.79;42.20;101306.00;5095263;28;19922;-65
2023/09/09 00:27:57;;;;;;;;;;;;;;;25.82;42.31;101294.44;5095337;28;19916;-65
2023/09/09 00:30:22;;;;;;;;;;;;;;;25.91;42.08;101277.38;5095124;28;19912;-65
2023/09/09 00:32:48;;;;;;;;;;;;;;;26.01;41.66;101266.38;5094972;28;19934;-64
2023/09/09 00:35:13;;;;;;;;;;;;;;;26.06;41.74;101261.69;5093378;28;19912;-65
2023/09/09 00:37:39;;;;;;;;;;;;;;;25.99;41.62;101258.41;5096946;28;19939;-65
2023/09/09 00:40:05;;;;;;;;;;;;;;;26.05;41.37;101251.78;5095418;28;19993;-65
2023/09/09 00:42:30;;;;;;;;;;;;;;;26.03;41.81;101242.97;5095513;28;19923;-66
2023/09/09 00:44:56;;;;;;;;;;;;;;;26.05;41.93;101250.97;5096147;28;19912;-65
2023/09/09 00:47:21;;;;;;;;;;;;;;;26.00;41.53;101251.81;5095953;28;19912;-65
2023/09/09 00:49:46;;;;;;;;;;;;;;;25.96;41.64;101256.19;5095339;28;20323;-65
2023/09/09 00:52:12;;;;;;;;;;;;;;;25.96;41.84;101255.38;5095522;28;20003;-65
2023/09/09 00:54:37;;;;;;;;;;;;;;;26.00;41.72;101265.56;5094727;28;19919;-65
2023/09/09 00:57:03;;;;;;;;;;;;;;;25.96;41.86;101264.44;5095663;28;19912;-65
2023/09/09 00:59:29;;;;;;;;;;;;;;;25.94;41.81;101266.66;5095216;28;19912;-65
2023/09/09 01:01:56;;;;;;;;;;;;;;;25.98;41.91;101245.72;5088489;28;19920;-65
2023/09/09 01:04:21;;;;;;;;;;;;;;;26.05;41.87;101257.28;5084588;28;19923;-66
2023/09/09 01:06:47;;;;;;;;;;;;;;;26.05;41.55;101265.53;5095527;28;20321;-65
2023/09/09 01:09:12;;;;;;;;;;;;;;;26.03;41.80;101267.75;5095145;28;19912;-65
2023/09/09 01:11:37;;;;;;;;;;;;;;;26.07;41.76;101259.75;5094817;28;19942;-65
2023/09/09 01:14:03;;;;;;;;;;;;;;;26.06;41.69;101263.63;5095017;28;19999;-65
2023/09/09 01:16:29;;;;;;;;;;;;;;;26.03;41.71;101265.00;5094925;28;19935;-65
2023/09/09 01:18:55;;;;;;;;;;;;;;;26.01;41.72;101267.19;5094709;28;19912;-65
2023/09/09 01:21:21;;;;;;;;;;;;;;;26.00;41.70;101275.72;5094755;28;19923;-65
2023/09/09 01:23:47;;;;;;;;;;;;;;;25.94;41.82;101274.09;5094647;28;20280;-65
2023/09/09 01:26:12;;;;;;;;;;;;;;;25.92;42.05;101268.88;5094626;28;19919;-65
2023/09/09 01:28:37;;;;;;;;;;;;;;;25.93;42.20;101272.44;5094817;28;19912;-65
2023/09/09 01:31:06;;;;;;;;;;;;;;;25.85;42.05;101266.38;5094896;28;19912;-65
2023/09/09 01:33:31;;;;;;;;;;;;;;;25.90;42.20;101260.03;5094600;28;19916;-65
2023/09/09 01:35:57;;;;;;;;;;;;;;;25.54;42.98;101257.31;5094560;28;19958;-65
2023/09/09 01:38:23;;;;;;;;;;;;;;;25.86;42.00;101265.25;5094258;28;19916;-65
2023/09/09 01:40:48;;;;;;;;;;;;;;;25.90;42.10;101262.78;5094575;28;20369;-65
2023/09/09 01:43:13;;;;;;;;;;;;;;;25.92;42.17;101263.34;5094489;28;19916;-66
2023/09/09 01:45:39;;;;;;;;;;;;;;;25.93;41.93;101258.66;5094483;28;20376;-66
2023/09/09 01:48:05;;;;;;;;;;;;;;;25.93;41.98;101259.53;5094644;28;19934;-66
2023/09/09 01:50:30;;;;;;;;;;;;;;;25.95;41.87;101253.75;5094472;28;20387;-66
2023/09/09 01:52:56;;;;;;;;;;;;;;;25.93;42.16;101245.75;5094215;28;20011;-66
2023/09/09 01:55:21;;;;;;;;;;;;;;;25.91;41.97;101241.59;5099589;28;20355;-66
2023/09/09 01:57:46;;;;;;;;;;;;;;;25.85;42.30;101257.28;5114321;28;19995;-65
2023/09/09 02:00:12;;;;;;;;;;;;;;;25.75;42.54;101258.13;5108071;28;19916;-65
2023/09/09 02:02:37;;;;;;;;;;;;;;;25.68;42.46;101260.31;5094024;28;20353;-65
2023/09/09 02:05:02;;;;;;;;;;;;;;;25.72;42.41;101255.09;5093955;28;20322;-65
2023/09/09 02:07:28;;;;;;;;;;;;;;;25.76;42.21;101251.53;5093963;28;20471;-65
2023/09/09 02:09:53;;;;;;;;;;;;;;;25.79;42.30;101247.38;5092472;28;20020;-65
2023/09/09 02:12:18;;;;;;;;;;;;;;;25.79;42.46;101241.88;5093583;28;19955;-65
2023/09/09 02:14:46;;;;;;;;;;;;;;;25.81;42.31;101246.00;5092566;28;19913;-65
2023/09/09 02:17:12;;;;;;;;;;;;;;;25.82;42.64;101255.91;5092510;28;19912;-65
2023/09/09 02:19:38;;;;;;;;;;;;;;;25.80;42.47;101257.31;5092353;28;19913;-65
2023/09/09 02:22:04;;;;;;;;;;;;;;;25.77;42.48;101255.91;5093036;28;20433;-65
2023/09/09 02:24:29;;;;;;;;;;;;;;;25.82;42.47;101244.91;5092699;28;20383;-65
2023/09/09 02:26:54;;;;;;;;;;;;;;;25.86;42.47;101250.69;5092711;28;19966;-65
2023/09/09 02:29:20;;;;;;;;;;;;;;;25.84;42.40;101256.47;5092983;28;19916;-65
2023/09/09 02:31:45;;;;;;;;;;;;;;;25.85;42.42;101229.75;5092865;28;19912;-65
2023/09/09 02:34:11;;;;;;;;;;;;;;;25.86;42.56;101234.19;5092544;28;19912;-65
2023/09/09 02:36:36;;;;;;;;;;;;;;;25.85;42.57;101235.25;5093127;28;19913;-65
2023/09/09 02:39:01;;;;;;;;;;;;;;;25.86;42.58;101231.41;5092950;28;20318;-65
2023/09/09 02:41:28;;;;;;;;;;;;;;;25.86;42.38;101236.94;5092882;28;20288;-65
2023/09/09 02:43:54;;;;;;;;;;;;;;;25.83;42.41;101231.97;5092610;28;19980;-66
2023/09/09 02:46:20;;;;;;;;;;;;;;;25.84;42.34;101226.19;5093512;28;19912;-66
2023/09/09 02:48:45;;;;;;;;;;;;;;;25.82;42.40;101219.31;5093409;28;19912;-66
2023/09/09 02:51:10;;;;;;;;;;;;;;;25.84;42.39;101228.13;5093548;28;20398;-65
2023/09/09 02:53:35;;;;;;;;;;;;;;;25.87;42.58;101216.53;5092330;28;19912;-64
2023/09/09 02:56:01;;;;;;;;;;;;;;;25.86;42.42;101206.66;5092993;28;20026;-65
2023/09/09 02:58:26;;;;;;;;;;;;;;;25.88;42.40;101204.44;5093659;28;19912;-65
2023/09/09 03:00:51;;;;;;;;;;;;;;;25.89;42.29;101200.56;5093239;28;19912;-65
2023/09/09 03:03:17;;;;;;;;;;;;;;;25.84;42.31;101209.69;5075058;28;19959;-65
2023/09/09 03:05:42;;;;;;;;;;;;;;;25.84;42.16;101204.19;5073347;28;19979;-65
2023/09/09 03:08:07;;;;;;;;;;;;;;;25.88;42.06;101212.69;5073287;28;19912;-66
2023/09/09 03:10:32;;;;;;;;;;;;;;;25.82;42.15;101205.56;5073182;28;19948;-66
2023/09/09 03:12:58;;;;;;;;;;;;;;;25.83;41.98;101205.25;5073057;28;19913;-65
2023/09/09 03:15:23;;;;;;;;;;;;;;;25.87;41.89;101200.88;5082521;28;19919;-66
2023/09/09 03:17:49;;;;;;;;;;;;;;;25.86;42.08;101192.91;5093547;28;19913;-66
2023/09/09 03:20:14;;;;;;;;;;;;;;;25.83;41.92;101194.25;5093405;28;19921;-66
2023/09/09 03:22:39;;;;;;;;;;;;;;;25.83;41.70;101190.69;5093240;28;19912;-66
2023/09/09 03:25:07;;;;;;;;;;;;;;;25.81;41.75;101190.16;5093419;28;19920;-66
2023/09/09 03:27:33;;;;;;;;;;;;;;;25.83;41.92;101198.94;5093339;28;19916;-66
2023/09/09 03:29:58;;;;;;;;;;;;;;;25.82;41.93;101195.38;5093215;28;20357;-66
2023/09/09 03:32:25;;;;;;;;;;;;;;;25.73;41.71;101198.97;5093034;28;19912;-66
2023/09/09 03:34:51;;;;;;;;;;;;;;;25.59;41.99;101204.22;5093065;28;19916;-66
2023/09/09 03:37:16;;;;;;;;;;;;;;;25.15;43.39;101188.22;5093347;28;19962;-65
2023/09/09 03:39:42;;;;;;;;;;;;;;;25.53;42.41;101180.56;5093306;28;20292;-65
2023/09/09 03:42:07;;;;;;;;;;;;;;;25.52;42.39;101198.16;5096774;28;19916;-65
2023/09/09 03:44:38;;;;;;;;;;;;;;;25.04;43.44;101193.72;5097010;28;19912;-65
2023/09/09 03:47:03;;;;;;;;;;;;;;;25.48;42.61;101201.47;5096982;28;19922;-65
2023/09/09 03:49:29;;;;;;;;;;;;;;;25.58;42.16;101197.88;5095274;28;19919;-65
2023/09/09 03:51:55;;;;;;;;;;;;;;;25.12;43.04;101204.16;5097232;28;19983;-65
2023/09/09 03:54:20;;;;;;;;;;;;;;;25.02;43.34;101209.66;5076194;28;19920;-65
2023/09/09 03:56:46;;;;;;;;;;;;;;;25.11;43.47;101204.44;5103380;28;19912;-65
2023/09/09 03:59:11;;;;;;;;;;;;;;;25.11;43.29;101204.44;5095853;28;20336;-65
2023/09/09 04:01:36;;;;;;;;;;;;;;;25.59;42.17;101210.53;5092872;28;20357;-65
2023/09/09 04:04:02;;;;;;;;;;;;;;;25.67;42.04;101198.97;5076755;28;20394;-65
2023/09/09 04:06:27;;;;;;;;;;;;;;;25.75;41.75;101205.84;5076814;28;20393;-65
2023/09/09 04:08:56;;;;;;;;;;;;;;;25.78;41.78;101207.19;5076142;28;19974;-65
2023/09/09 04:11:21;;;;;;;;;;;;;;;25.77;41.87;101205.56;5083046;28;20238;-64
2023/09/09 04:13:46;;;;;;;;;;;;;;;25.74;41.56;101200.59;5096087;28;19934;-64
2023/09/09 04:16:12;;;;;;;;;;;;;;;25.72;41.69;101200.06;5096255;28;20260;-64
2023/09/09 04:18:37;;;;;;;;;;;;;;;25.70;41.73;101203.09;5096215;28;20265;-66
2023/09/09 04:21:02;;;;;;;;;;;;;;;25.61;41.66;101202.00;5096015;28;19957;-65
2023/09/09 04:23:27;;;;;;;;;;;;;;;25.58;42.02;101203.38;5095732;28;19916;-65
2023/09/09 04:25:53;;;;;;;;;;;;;;;25.70;41.68;101200.34;5096000;28;19916;-65
2023/09/09 04:28:18;;;;;;;;;;;;;;;25.75;41.45;101194.84;5095944;28;19919;-65
2023/09/09 04:30:45;;;;;;;;;;;;;;;25.75;41.48;101197.59;5095981;28;19964;-65
2023/09/09 04:33:11;;;;;;;;;;;;;;;25.72;41.56;101202.81;5096045;28;19986;-65
2023/09/09 04:35:43;;;;;;;;;;;;;;;25.72;41.40;101205.56;5095731;28;19912;-65
2023/09/09 04:38:09;;;;;;;;;;;;;;;25.78;41.22;101201.69;5095755;28;19918;-65
2023/09/09 04:40:35;;;;;;;;;;;;;;;25.82;41.33;101205.56;5095729;28;19912;-65
2023/09/09 04:43:00;;;;;;;;;;;;;;;25.79;41.09;101201.44;5095736;28;20007;-64
2023/09/09 04:45:25;;;;;;;;;;;;;;;25.80;41.53;101199.53;5095872;28;19957;-64
2023/09/09 04:47:51;;;;;;;;;;;;;;;25.78;41.37;101190.69;5095869;28;19923;-65
2023/09/09 04:50:20;;;;;;;;;;;;;;;25.75;41.63;101191.28;5095467;28;19925;-64
2023/09/09 04:52:46;;;;;;;;;;;;;;;25.79;41.36;101187.66;5087780;28;20297;-64
2023/09/09 04:55:11;;;;;;;;;;;;;;;25.80;41.31;101194.03;5083667;28;20403;-65
2023/09/09 04:57:36;;;;;;;;;;;;;;;25.77;41.41;101189.88;5115948;28;19951;-65
2023/09/09 05:00:06;;;;;;;;;;;;;;;25.79;41.21;101189.59;5115873;28;20363;-65
2023/09/09 05:02:32;;;;;;;;;;;;;;;25.80;41.28;101189.34;5102341;28;19919;-65
2023/09/09 05:04:57;;;;;;;;;;;;;;;25.80;41.31;101194.03;5094970;28;19924;-65
2023/09/09 05:07:23;;;;;;;;;;;;;;;25.79;41.24;101195.91;5094799;28;19969;-65
2023/09/09 05:09:48;;;;;;;;;;;;;;;25.82;41.33;101194.56;5095271;28;19972;-66
2023/09/09 05:12:15;;;;;;;;;;;;;;;25.84;41.34;101184.91;5095057;28;19919;-65
2023/09/09 05:14:40;;;;;;;;;;;;;;;25.87;41.40;101191.78;5095232;28;19920;-65
2023/09/09 05:17:08;;;;;;;;;;;;;;;25.97;41.10;101186.28;5094415;28;21171;-65
2023/09/09 05:19:33;;;;;;;;;;;;;;;26.04;40.92;101194.28;5095013;28;20002;-64
2023/09/09 05:22:00;;;;;;;;;;;;;;;26.08;40.97;101203.59;5094941;28;20191;-65
2023/09/09 05:24:25;;;;;;;;;;;;;;;26.04;40.64;101202.53;5094700;28;20110;-64
2023/09/09 05:26:51;;;;;;;;;;;;;;;26.07;41.02;101196.44;5094697;28;19950;-65
2023/09/09 05:29:16;;;;;;;;;;;;;;;26.13;40.93;101198.06;5094586;28;20033;-65
2023/09/09 05:31:41;;;;;;;;;;;;;;;26.21;40.80;101193.94;5095034;28;19969;-65
2023/09/09 05:34:07;;;;;;;;;;;;;;;26.24;40.77;101193.34;5094779;28;19912;-66
2023/09/09 05:36:33;;;;;;;;;;;;;;;26.24;40.56;101190.59;5094516;28;19923;-65
2023/09/09 05:38:59;;;;;;;;;;;;;;;26.23;40.68;101188.97;5094664;28;19912;-66
2023/09/09 05:41:29;;;;;;;;;;;;;;;26.27;40.73;101195.56;5094656;28;19919;-65
2023/09/09 05:43:54;;;;;;;;;;;;;;;26.29;40.58;101193.34;5094264;28;19916;-65
2023/09/09 05:46:20;;;;;;;;;;;;;;;26.29;40.50;101195.28;5094454;28;19923;-66
2023/09/09 05:48:45;;;;;;;;;;;;;;;26.28;40.76;101186.19;5094218;28;19915;-65
2023/09/09 05:51:10;;;;;;;;;;;;;;;26.29;40.69;101190.59;5094225;28;19916;-65
2023/09/09 05:53:35;;;;;;;;;;;;;;;26.29;40.76;101185.06;5093691;28;19912;-65
2023/09/09 05:56:01;;;;;;;;;;;;;;;26.29;40.59;101181.50;5092404;28;20014;-65
2023/09/09 05:58:26;;;;;;;;;;;;;;;26.31;40.81;101177.34;5093347;28;19912;-65
2023/09/09 06:00:52;;;;;;;;;;;;;;;26.35;40.45;101183.13;5093071;28;19912;-65
2023/09/09 06:03:17;;;;;;;;;;;;;;;26.35;40.73;101178.44;5092273;28;19917;-65
2023/09/09 06:05:42;;;;;;;;;;;;;;;26.39;40.82;101179.53;5093140;28;19920;-65
2023/09/09 06:08:07;;;;;;;;;;;;;;;26.45;40.68;101180.34;5092808;28;20011;-65
2023/09/09 06:10:33;;;;;;;;;;;;;;;26.47;40.57;101183.63;5092931;28;19923;-65
2023/09/09 06:12:58;;;;;;;;;;;;;;;26.48;40.64;101184.44;5092999;28;19999;-65
2023/09/09 06:15:23;;;;;;;;;;;;;;;26.46;40.71;101179.22;5093040;28;20344;-65
2023/09/09 06:17:49;;;;;;;;;;;;;;;26.50;40.74;101177.53;5093757;28;20332;-65
2023/09/09 06:20:14;;;;;;;;;;;;;;;26.58;40.99;101181.66;5094414;28;19918;-65
2023/09/09 06:22:40;;;;;;;;;;;;;;;26.58;40.81;101185.22;5094082;28;20374;-65
2023/09/09 06:25:05;;;;;;;;;;;;;;;26.61;40.89;101192.13;5093413;28;19916;-65
2023/09/09 06:27:31;;;;;;;;;;;;;;;26.59;40.57;101188.78;5092324;28;20579;-65
2023/09/09 06:29:56;;;;;;;;;;;;;;;26.59;40.83;101192.34;5092394;28;19912;-65
2023/09/09 06:32:22;;;;;;;;;;;;;;;26.60;40.68;101182.22;5092099;28;20351;-65
2023/09/09 06:34:47;;;;;;;;;;;;;;;26.65;40.80;101190.44;5092236;28;19916;-65
2023/09/09 06:37:12;;;;;;;;;;;;;;;26.68;40.66;101189.06;5092207;28;19913;-65
2023/09/09 06:39:37;;;;;;;;;;;;;;;26.68;40.54;101186.31;5092735;28;20393;-65
2023/09/09 06:42:03;;;;;;;;;;;;;;;26.75;40.40;101186.81;5093430;28;20318;-65
2023/09/09 06:44:28;;;;;;;;;;;;;;;26.74;40.67;101183.22;5093274;28;19922;-65
2023/09/09 06:46:53;;;;;;;;;;;;;;;26.74;40.26;101180.47;5093465;28;19922;-65
2023/09/09 06:49:19;;;;;;;;;;;;;;;26.75;40.33;101179.34;5093449;28;19985;-65
2023/09/09 06:51:44;;;;;;;;;;;;;;;26.78;40.38;101180.72;5093544;28;19958;-65
2023/09/09 06:54:10;;;;;;;;;;;;;;;26.81;40.26;101174.63;5093155;28;19918;-65
2023/09/09 06:56:35;;;;;;;;;;;;;;;26.86;40.58;101171.84;5093289;28;19912;-65
2023/09/09 06:59:01;;;;;;;;;;;;;;;26.90;40.30;101164.66;5093482;28;19995;-65
2023/09/09 07:01:26;;;;;;;;;;;;;;;26.91;40.28;101160.78;5090554;28;19923;-65
2023/09/09 07:03:51;;;;;;;;;;;;;;;26.92;40.00;101178.97;5073171;28;19920;-65
2023/09/09 07:06:17;;;;;;;;;;;;;;;26.96;40.12;101179.22;5073077;28;19912;-65
2023/09/09 07:08:43;;;;;;;;;;;;;;;27.01;40.01;101181.94;5073249;28;20401;-66
2023/09/09 07:11:08;;;;;;;;;;;;;;;27.09;39.72;101175.00;5073324;28;19912;-66
2023/09/09 07:13:34;;;;;;;;;;;;;;;27.15;40.05;101179.34;5073121;28;20266;-66
2023/09/09 07:15:59;;;;;;;;;;;;;;;27.20;39.69;101174.63;5075108;28;19913;-66
2023/09/09 07:18:25;;;;;;;;;;;;;;;27.27;39.88;101179.84;5077617;28;19919;-66
2023/09/09 07:20:50;;;;;;;;;;;;;;;27.32;39.53;101173.44;5077295;28;19917;-66
2023/09/09 07:23:16;;;;;;;;;;;;;;;27.40;39.66;101172.84;5084170;28;20015;-65
2023/09/09 07:25:42;;;;;;;;;;;;;;;27.45;39.51;101178.31;5094286;28;20424;-66
2023/09/09 07:28:08;;;;;;;;;;;;;;;27.52;39.28;101172.44;5097175;28;19955;-65
2023/09/09 07:30:33;;;;;;;;;;;;;;;27.61;39.35;101170.69;5095900;28;19955;-64
2023/09/09 07:32:58;;;;;;;;;;;;;;;27.68;39.36;101181.41;5097213;28;19919;-64
2023/09/09 07:35:23;;;;;;;;;;;;;;;27.72;39.02;101179.69;5096981;28;20094;-65
2023/09/09 07:37:50;;;;;;;;;;;;;;;27.76;39.19;101181.56;5096787;28;19920;-64
2023/09/09 07:40:16;;;;;;;;;;;;;;;27.84;39.35;101177.38;5097077;28;19916;-64
2023/09/09 07:42:41;;;;;;;;;;;;;;;27.85;39.16;101169.91;5096636;28;19939;-65
2023/09/09 07:45:07;;;;;;;;;;;;;;;27.88;38.85;101180.34;5096792;28;20313;-66
2023/09/09 07:47:32;;;;;;;;;;;;;;;27.85;38.79;101186.47;5096847;28;19912;-65
2023/09/09 07:49:57;;;;;;;;;;;;;;;27.83;39.28;101181.25;5096845;28;20444;-65
2023/09/09 07:52:23;;;;;;;;;;;;;;;27.88;39.14;101177.59;5096709;28;19916;-64
2023/09/09 07:54:49;;;;;;;;;;;;;;;27.89;39.17;101173.72;5096169;28;19920;-64
2023/09/09 07:57:14;;;;;;;;;;;;;;;27.89;38.93;101176.47;5096547;28;19919;-64
2023/09/09 07:59:39;;;;;;;;;;;;;;;27.90;39.08;101179.00;5096602;28;19919;-66
2023/09/09 08:02:05;;;;;;;;;;;;;;;27.90;38.90;101175.41;5088455;28;19913;-65
2023/09/09 08:04:30;;;;;;;;;;;;;;;27.91;38.81;101179.81;5087873;28;19924;-64
2023/09/09 08:06:56;;;;;;;;;;;;;;;27.91;38.98;101185.31;5096285;28;19919;-63
2023/09/09 08:09:21;;;;;;;;;;;;;;;27.97;39.15;101181.38;5096399;28;20004;-63
2023/09/09 08:11:46;;;;;;;;;;;;;;;28.10;38.78;101179.84;5096301;28;19934;-62
2023/09/09 08:14:13;;;;;;;;;;;;;;;28.17;38.54;101181.13;5096092;28;19912;-63
2023/09/09 08:16:38;;;;;;;;;;;;;;;28.26;38.86;101183.25;5096288;28;19993;-63
2023/09/09 08:19:03;;;;;;;;;;;;;;;28.25;38.58;101185.22;5096246;28;20373;-63
2023/09/09 08:21:28;;;;;;;;;;;;;;;28.25;38.92;101185.22;5096008;28;19912;-63
2023/09/09 08:23:56;;;;;;;;;;;;;;;28.31;38.63;101178.50;5095881;28;19916;-62
2023/09/09 08:26:22;;;;;;;;;;;;;;;28.29;38.42;101180.72;5095894;28;19912;-63
2023/09/09 08:28:47;;;;;;;;;;;;;;;28.28;38.29;101178.25;5095811;28;19912;-63
2023/09/09 08:31:12;;;;;;;;;;;;;;;28.22;38.46;101187.75;5093551;28;19919;-63
2023/09/09 08:33:37;;;;;;;;;;;;;;;28.22;38.57;101182.22;5079305;28;20384;-64
2023/09/09 08:36:03;;;;;;;;;;;;;;;28.22;38.41;101169.22;5095811;28;19912;-62
2023/09/09 08:38:28;;;;;;;;;;;;;;;28.28;38.24;101161.69;5095885;28;19916;-63
2023/09/09 08:41:02;;;;;;;;;;;;;;;28.34;38.40;101163.25;5095696;28;20414;-63
2023/09/09 08:43:33;;;;;;;;;;;;;;;28.34;38.13;101160.50;5095667;28;19916;-63
2023/09/09 08:46:04;;;;;;;;;;;;;;;28.28;37.82;101167.22;5075177;28;20385;-63
2023/09/09 08:48:31;;;;;;;;;;;;;;;28.23;37.83;101170.03;5075578;28;19913;-64
2023/09/09 08:50:59;;;;;;;;;;;;;;;28.26;37.99;101164.75;5094263;28;19923;-64
2023/09/09 08:53:26;;;;;;;;;;;;;;;28.35;38.20;101165.72;5095315;28;19920;-65
2023/09/09 08:55:55;;;;;;;;;;;;;;;28.37;37.81;101160.72;5066805;28;19927;-65
2023/09/09 08:58:21;;;;;;;;;;;;;;;28.44;38.00;101165.09;5092723;28;20380;-66
2023/09/09 09:00:46;;;;;;;;;;;;;;;28.45;38.08;101162.00;5094034;28;19912;-64
2023/09/09 09:03:12;;;;;;;;;;;;;;;28.36;37.81;101159.09;5093494;28;19916;-62
2023/09/09 09:05:38;;;;;;;;;;;;;;;28.44;37.49;101165.09;5091979;28;20413;-63
2023/09/09 09:08:04;;;;;;;;;;;;;;;28.51;37.76;101171.03;5094727;28;19912;-64
2023/09/09 09:10:29;;;;;;;;;;;;;;;28.52;37.55;101162.50;5089771;28;19916;-63
2023/09/09 09:12:55;;;;;;;;;;;;;;;28.52;37.35;101170.78;5088134;28;19912;-63
2023/09/09 09:15:21;;;;;;;;;;;;;;;28.52;37.95;101154.19;5087740;28;20490;-63
2023/09/09 09:17:46;;;;;;;;;;;;;;;28.46;37.41;101152.59;5090153;28;20341;-64
2023/09/09 09:20:31;;;;;;;;;;;;;;;28.24;37.89;101157.88;5089127;28;20003;-63
2023/09/09 09:23:02;;;;;;;;;;;;;;;28.28;37.75;101162.50;5087435;28;20364;-64
2023/09/09 09:25:28;;;;;;;;;;;;;;;28.24;37.91;101158.69;5087150;28;20015;-64
2023/09/09 09:27:57;;;;;;;;;;;;;;;28.34;37.58;101154.97;5089526;28;20226;-64
2023/09/09 09:30:28;;;;;;;;;;;;;;;28.39;37.63;101152.16;5089363;28;20380;-67
2023/09/09 09:32:54;;;;;;;;;;;;;;;28.51;37.50;101141.47;5085092;28;19917;-67
2023/09/09 09:35:32;;;;;;;;;;;;;;;28.57;37.51;101136.72;5084670;28;19920;-67
2023/09/09 09:38:15;;;;;;;;;;;;;;;28.66;37.41;101134.94;5080587;28;19912;-67
2023/09/09 09:40:40;;;;;;;;;;;;;;;28.82;37.57;101129.16;5086354;28;19912;-67
2023/09/09 09:43:16;;;;;;;;;;;;;;;28.90;37.57;101132.09;5091817;28;19932;-65
2023/09/09 09:45:41;;;;;;;;;;;;;;;28.94;37.20;101132.31;5092549;28;19965;-64
2023/09/09 09:48:07;;;;;;;;;;;;;;;28.95;37.60;101120.09;5091014;28;20023;-65
2023/09/09 09:50:32;;;;;;;;;;;;;;;28.91;37.09;101124.59;5097404;28;19913;-64
2023/09/09 09:52:58;;;;;;;;;;;;;;;28.92;36.81;101118.78;5089109;28;19928;-65
2023/09/09 09:55:24;;;;;;;;;;;;;;;28.91;36.97;101122.66;5089350;28;19912;-67
2023/09/09 09:57:52;;;;;;;;;;;;;;;28.99;37.40;101123.09;5092900;28;19912;-64
2023/09/09 10:00:18;;;;;;;;;;;;;;;28.97;36.65;101120.63;5089136;28;19966;-64
2023/09/09 10:02:45;;;;;;;;;;;;;;;28.95;36.05;101120.09;5087833;28;19948;-64
2023/09/09 10:05:13;;;;;;;;;;;;;;;28.89;36.93;101113.03;5089174;28;19924;-64
2023/09/09 10:07:41;;;;;;;;;;;;;;;28.97;37.10;101115.09;5091312;28;19912;-64
2023/09/09 10:10:09;;;;;;;;;;;;;;;29.14;37.09;101111.78;5090952;28;19912;-64
2023/09/09 10:12:54;;;;;;;;;;;;;;;29.20;36.43;101106.97;5085911;28;19923;-64
2023/09/09 10:15:21;;;;;;;;;;;;;;;29.23;36.32;101115.50;5058144;28;19966;-64
2023/09/09 10:17:48;;;;;;;;;;;;;;;29.31;36.60;101114.81;5090733;28;19981;-64
2023/09/09 10:20:14;;;;;;;;;;;;;;;29.36;36.42;101113.06;5086233;28;20312;-64
2023/09/09 10:22:41;;;;;;;;;;;;;;;29.36;36.51;101111.13;5090660;28;20002;-64
2023/09/09 10:25:07;;;;;;;;;;;;;;;29.41;36.08;101115.75;5089939;28;19951;-64
2023/09/09 10:27:33;;;;;;;;;;;;;;;29.24;36.21;101116.34;5088403;28;20051;-64
2023/09/09 10:30:00;;;;;;;;;;;;;;;29.27;36.45;101119.31;5088254;28;19923;-64
2023/09/09 10:32:26;;;;;;;;;;;;;;;29.15;36.05;101128.09;5092306;28;19935;-64
2023/09/09 10:34:52;;;;;;;;;;;;;;;29.03;35.96;101126.88;5090515;28;19923;-63
2023/09/09 10:37:20;;;;;;;;;;;;;;;28.84;36.51;101124.97;5090171;28;19912;-63
2023/09/09 10:39:47;;;;;;;;;;;;;;;28.91;36.28;101121.84;5092664;28;19911;-63
2023/09/09 10:42:12;;;;;;;;;;;;;;;28.90;36.26;101120.19;5087584;28;20253;-64
2023/09/09 10:44:38;;;;;;;;;;;;;;;28.89;36.17;101113.03;5089982;28;19931;-63
2023/09/09 10:47:07;;;;;;;;;;;;;;;28.87;36.26;101113.31;5088168;28;20292;-63
2023/09/09 10:49:32;;;;;;;;;;;;;;;28.89;36.34;101110.25;5089261;28;19912;-64
2023/09/09 10:51:57;;;;;;;;;;;;;;;28.85;36.38;101109.22;5091843;28;20247;-64
2023/09/09 10:54:23;;;;;;;;;;;;;;;28.85;36.35;101098.16;5086092;28;19952;-64
2023/09/09 10:56:52;;;;;;;;;;;;;;;28.92;36.58;101095.84;5089882;28;19919;-63
2023/09/09 10:59:23;;;;;;;;;;;;;;;29.06;36.40;101088.38;5092003;28;19912;-64
2023/09/09 11:01:51;;;;;;;;;;;;;;;29.10;36.67;101092.19;5089998;28;19912;-64
2023/09/09 11:04:21;;;;;;;;;;;;;;;29.24;36.26;101088.66;5090467;28;19920;-64
2023/09/09 11:07:09;;;;;;;;;;;;;;;29.46;36.01;101082.44;5087796;28;20011;-64
2023/09/09 11:09:37;;;;;;;;;;;;;;;29.62;35.89;101086.53;5080020;28;19965;-64
2023/09/09 11:12:13;;;;;;;;;;;;;;;29.73;35.81;101089.94;5091311;28;19912;-64
2023/09/09 11:14:45;;;;;;;;;;;;;;;29.81;35.66;101088.41;5090625;28;20010;-64
2023/09/09 11:17:11;;;;;;;;;;;;;;;29.89;35.80;101082.97;5091024;28;19921;-64
2023/09/09 11:19:36;;;;;;;;;;;;;;;29.96;35.75;101076.19;5090210;28;19916;-64
2023/09/09 11:22:02;;;;;;;;;;;;;;;29.90;35.36;101079.09;5092029;28;20407;-64
2023/09/09 11:24:28;;;;;;;;;;;;;;;29.96;35.43;101085.34;5089080;28;19916;-64
2023/09/09 11:26:55;;;;;;;;;;;;;;;29.90;34.70;101090.16;5089545;28;20379;-64
2023/09/09 11:29:20;;;;;;;;;;;;;;;29.99;35.39;101078.34;5092226;28;19920;-64
2023/09/09 11:31:46;;;;;;;;;;;;;;;30.01;35.35;101085.22;5090310;28;19912;-64
2023/09/09 11:34:11;;;;;;;;;;;;;;;30.06;35.60;101092.59;5090511;28;20276;-64
2023/09/09 11:36:37;;;;;;;;;;;;;;;30.17;34.93;101085.72;5088206;28;20015;-65
2023/09/09 11:39:03;;;;;;;;;;;;;;;30.12;35.17;101088.59;5091117;28;20003;-64
2023/09/09 11:41:30;;;;;;;;;;;;;;;30.30;35.43;101089.59;5090227;28;19912;-64
2023/09/09 11:44:13;;;;;;;;;;;;;;;30.44;34.93;101078.47;5088186;28;20323;-64
2023/09/09 11:46:40;;;;;;;;;;;;;;;30.38;34.48;101080.53;5088979;28;19920;-64
2023/09/09 11:49:06;;;;;;;;;;;;;;;30.47;34.49;101073.13;5089732;28;19920;-64
2023/09/09 11:51:31;;;;;;;;;;;;;;;30.44;35.04;101071.00;5091522;28;19916;-64
2023/09/09 11:53:57;;;;;;;;;;;;;;;30.48;34.94;101065.66;5090450;28;20368;-64
2023/09/09 11:56:23;;;;;;;;;;;;;;;30.32;34.64;101072.66;5091108;28;19912;-64
2023/09/09 11:58:49;;;;;;;;;;;;;;;30.32;34.94;101067.09;5090780;28;19973;-64
2023/09/09 12:01:14;;;;;;;;;;;;;;;30.05;34.81;101069.63;5090704;28;19952;-64
2023/09/09 12:03:39;;;;;;;;;;;;;;;30.00;34.49;101077.25;5094139;28;20289;-64
2023/09/09 12:06:06;;;;;;;;;;;;;;;30.01;34.77;101076.91;5093787;28;20323;-64
2023/09/09 12:08:32;;;;;;;;;;;;;;;30.05;35.24;101077.09;5092821;28;19916;-64
2023/09/09 12:10:58;;;;;;;;;;;;;;;30.18;34.77;101084.59;5093460;28;19962;-64
2023/09/09 12:13:24;;;;;;;;;;;;;;;30.26;34.87;101064.44;5093698;28;19995;-64
2023/09/09 12:15:49;;;;;;;;;;;;;;;30.29;34.24;101065.75;5093794;28;19960;-64
2023/09/09 12:18:15;;;;;;;;;;;;;;;30.22;34.39;101065.38;5091672;28;20326;-64
2023/09/09 12:21:02;;;;;;;;;;;;;;;30.25;34.75;101061.97;5090082;28;19954;-64
2023/09/09 12:23:31;;;;;;;;;;;;;;;30.18;34.95;101053.28;5091853;28;20376;-64
2023/09/09 12:26:06;;;;;;;;;;;;;;;30.36;34.91;101060.63;5093175;28;20010;-64
2023/09/09 12:28:31;;;;;;;;;;;;;;;30.46;34.77;101060.41;5094088;28;19916;-64
2023/09/09 12:30:58;;;;;;;;;;;;;;;30.40;34.53;101061.66;5093432;28;19912;-64